Time;durP1;ratioP1;P1;durP2;ratioP2;P2;SDS_P1;SDS_P2;PMS_P1;PMS_P2;Temp;Humidity;BMP_temperature;BMP_pressure;BME280_temperature;BME280_humidity;BME280_pressure;Samples;Min_cycle;Max_cycle;Signal;HPM_P1;HPM_P2
2023/08/24 00:00:57;;;;;;;10.13;8.93;;;22.20;99.90;;;;;;5075210;28;20459;-76
2023/08/24 00:03:27;;;;;;;9.63;8.90;;;22.20;99.90;;;;;;5075699;28;20431;-74
2023/08/24 00:05:55;;;;;;;12.60;9.57;;;22.10;99.90;;;;;;5076327;28;20481;-75
2023/08/24 00:08:32;;;;;;;11.13;10.23;;;22.10;99.90;;;;;;5074289;28;20433;-75
2023/08/24 00:11:04;;;;;;;10.50;9.70;;;22.10;99.90;;;;;;5075527;28;20441;-76
2023/08/24 00:13:31;;;;;;;11.30;10.30;;;22.00;99.90;;;;;;5073174;28;20475;-76
2023/08/24 00:15:59;;;;;;;13.60;12.30;;;22.10;99.90;;;;;;5072983;28;20469;-76
2023/08/24 00:18:27;;;;;;;10.83;9.73;;;22.10;99.90;;;;;;5073275;28;20533;-76
2023/08/24 00:20:56;;;;;;;10.73;9.67;;;22.00;99.90;;;;;;5074052;28;20472;-75
2023/08/24 00:23:24;;;;;;;11.60;10.13;;;22.00;99.90;;;;;;5072615;28;20448;-76
2023/08/24 00:25:53;;;;;;;9.87;9.10;;;22.00;99.90;;;;;;5072967;28;20805;-77
2023/08/24 00:28:21;;;;;;;10.00;9.00;;;22.00;99.90;;;;;;5073094;28;20454;-77
2023/08/24 00:30:48;;;;;;;11.00;9.90;;;21.90;99.90;;;;;;5071716;28;20454;-77
2023/08/24 00:33:19;;;;;;;10.30;9.50;;;21.80;99.90;;;;;;5059199;28;20471;-75
2023/08/24 00:35:47;;;;;;;9.53;8.83;;;21.80;99.90;;;;;;5055399;28;21110;-77
2023/08/24 00:38:15;;;;;;;11.07;9.93;;;21.80;99.90;;;;;;5055007;28;20472;-78
2023/08/24 00:40:44;;;;;;;10.77;9.87;;;21.70;99.90;;;;;;5054701;28;20524;-79
2023/08/24 00:43:12;;;;;;;10.57;9.77;;;21.60;99.90;;;;;;5054107;28;20452;-78
2023/08/24 00:45:43;;;;;;;10.10;9.30;;;21.60;99.90;;;;;;5056905;28;20457;-77
2023/08/24 00:48:14;;;;;;;10.80;10.00;;;21.60;99.90;;;;;;5058069;28;20995;-78
2023/08/24 00:50:41;;;;;;;10.43;9.53;;;21.60;99.90;;;;;;5062394;28;20476;-77
2023/08/24 00:53:08;;;;;;;9.97;9.17;;;21.50;99.90;;;;;;5069757;28;20473;-76
2023/08/24 00:55:36;;;;;;;9.20;8.60;;;21.50;99.90;;;;;;5065694;28;20449;-76
2023/08/24 00:58:09;;;;;;;9.83;9.03;;;21.50;99.90;;;;;;5061827;28;20434;-78
2023/08/24 01:00:37;;;;;;;9.53;8.83;;;21.50;99.90;;;;;;5056686;28;20935;-76
2023/08/24 01:03:05;;;;;;;9.83;9.03;;;21.50;99.90;;;;;;5055518;28;20458;-77
2023/08/24 01:05:33;;;;;;;11.27;10.37;;;21.40;99.90;;;;;;5059220;28;20495;-77
2023/08/24 01:08:01;;;;;;;10.33;9.43;;;21.40;99.90;;;;;;5060134;28;20472;-77
2023/08/24 01:10:37;;;;;;;11.10;10.20;;;21.40;99.90;;;;;;5057225;28;20492;-78
2023/08/24 01:13:11;;;;;;;11.10;10.10;;;21.30;99.90;;;;;;5061566;28;20492;-77
2023/08/24 01:15:44;;;;;;;11.80;10.80;;;21.30;99.90;;;;;;5071743;28;20437;-76
2023/08/24 01:18:15;;;;;;;12.30;11.30;;;21.30;99.90;;;;;;5067738;28;20442;-78
2023/08/24 01:20:45;;;;;;;11.50;10.53;;;21.20;99.90;;;;;;5060540;28;20472;-77
2023/08/24 01:23:29;;;;;;;12.50;11.40;;;21.20;99.90;;;;;;5059173;28;20438;-75
2023/08/24 01:26:09;;;;;;;13.03;12.03;;;21.20;99.90;;;;;;5061114;28;20487;-78
2023/08/24 01:28:42;;;;;;;11.53;10.50;;;21.20;99.90;;;;;;5055996;28;20492;-76
2023/08/24 01:31:12;;;;;;;12.57;11.03;;;21.20;99.90;;;;;;5055181;28;20504;-76
2023/08/24 01:33:42;;;;;;;12.27;11.27;;;21.20;99.90;;;;;;5055705;28;20470;-77
2023/08/24 01:36:11;;;;;;;11.60;10.63;;;21.20;99.90;;;;;;5058087;28;20477;-78
2023/08/24 01:38:39;;;;;;;13.13;11.90;;;21.20;99.90;;;;;;5056620;28;20528;-77
2023/08/24 01:41:17;;;;;;;11.43;10.33;;;21.20;99.90;;;;;;5055223;28;20446;-78
2023/08/24 01:43:53;;;;;;;12.97;11.87;;;21.20;99.90;;;;;;5054440;28;20445;-77
2023/08/24 01:46:23;;;;;;;12.30;11.40;;;21.10;99.90;;;;;;5054427;28;20483;-78
2023/08/24 01:48:53;;;;;;;11.97;11.07;;;21.00;99.90;;;;;;5056339;28;20813;-79
2023/08/24 01:51:22;;;;;;;11.33;10.20;;;21.00;99.90;;;;;;5058236;28;20457;-76
2023/08/24 01:53:51;;;;;;;11.57;10.50;;;21.00;99.90;;;;;;5059991;28;20499;-78
2023/08/24 01:56:35;;;;;;;12.13;11.20;;;21.00;99.90;;;;;;5070592;28;20454;-75
2023/08/24 01:59:03;;;;;;;12.67;11.67;;;20.90;99.90;;;;;;5074224;28;20461;-75
2023/08/24 02:01:32;;;;;;;11.70;10.73;;;20.90;99.90;;;;;;5074509;28;20430;-76
2023/08/24 02:04:03;;;;;;;12.00;11.10;;;20.90;99.90;;;;;;5072764;28;20484;-76
2023/08/24 02:06:31;;;;;;;12.70;11.63;;;20.80;99.90;;;;;;5074842;28;20472;-76
2023/08/24 02:08:58;;;;;;;12.20;11.10;;;20.80;99.90;;;;;;5074542;28;20476;-76
2023/08/24 02:11:27;;;;;;;12.50;11.50;;;20.70;99.90;;;;;;5075495;28;20493;-77
2023/08/24 02:13:55;;;;;;;12.73;11.70;;;20.70;99.90;;;;;;5075132;28;20541;-75
2023/08/24 02:16:22;;;;;;;12.50;11.50;;;20.70;99.90;;;;;;5074531;28;20507;-79
2023/08/24 02:18:50;;;;;;;13.47;12.33;;;20.60;99.90;;;;;;5074840;28;20446;-76
2023/08/24 02:21:18;;;;;;;12.53;11.57;;;20.60;99.90;;;;;;5074359;28;20456;-77
2023/08/24 02:23:46;;;;;;;13.47;12.27;;;20.60;99.90;;;;;;5073885;28;20422;-75
2023/08/24 02:26:14;;;;;;;12.83;11.73;;;20.60;99.90;;;;;;5074850;28;20465;-76
2023/08/24 02:28:43;;;;;;;13.90;12.40;;;20.60;99.90;;;;;;5074198;28;20448;-75
2023/08/24 02:31:11;;;;;;;13.07;11.97;;;20.60;99.90;;;;;;5075503;28;20436;-78
2023/08/24 02:33:38;;;;;;;12.73;11.50;;;20.60;99.90;;;;;;5073440;28;20509;-78
2023/08/24 02:36:06;;;;;;;12.70;11.80;;;20.60;99.90;;;;;;5074402;28;20485;-77
2023/08/24 02:38:33;;;;;;;12.80;11.70;;;20.60;99.90;;;;;;5074997;28;20509;-77
2023/08/24 02:41:10;;;;;;;12.70;11.80;;;20.60;99.90;;;;;;5074949;28;20461;-77
2023/08/24 02:43:38;;;;;;;12.17;11.17;;;20.50;99.90;;;;;;5070453;28;20454;-77
2023/08/24 02:46:09;;;;;;;12.17;11.13;;;20.50;99.90;;;;;;5073223;28;20454;-78
2023/08/24 02:48:37;;;;;;;13.20;12.03;;;20.50;99.90;;;;;;5075578;28;20445;-78
2023/08/24 02:51:06;;;;;;;14.93;13.40;;;20.40;99.90;;;;;;5074099;28;20406;-77
2023/08/24 02:53:34;;;;;;;15.43;14.13;;;20.50;99.90;;;;;;5073199;28;20496;-77
2023/08/24 02:56:02;;;;;;;14.27;12.93;;;20.40;99.90;;;;;;5069947;28;20473;-77
2023/08/24 02:58:30;;;;;;;14.23;13.13;;;20.40;99.90;;;;;;5066839;28;20429;-77
2023/08/24 03:00:57;;;;;;;14.17;12.00;;;20.40;99.90;;;;;;5068488;28;20478;-76
2023/08/24 03:03:28;;;;;;;13.67;12.10;;;20.30;99.90;;;;;;5067165;28;20446;-76
2023/08/24 03:05:57;;;;;;;13.30;12.13;;;20.40;99.90;;;;;;5064780;28;20472;-77
2023/08/24 03:08:25;;;;;;;13.47;12.17;;;20.40;99.90;;;;;;5065262;28;20525;-78
2023/08/24 03:10:54;;;;;;;13.13;12.17;;;20.40;99.90;;;;;;5062667;28;20525;-78
2023/08/24 03:13:22;;;;;;;13.53;12.00;;;20.40;99.90;;;;;;5061984;28;20460;-78
2023/08/24 03:15:51;;;;;;;13.10;11.90;;;20.40;99.90;;;;;;5062231;28;20441;-77
2023/08/24 03:18:20;;;;;;;14.40;13.10;;;20.30;99.90;;;;;;5061459;28;20508;-78
2023/08/24 03:20:54;;;;;;;13.90;12.80;;;20.40;99.90;;;;;;5060982;28;20540;-78
2023/08/24 03:23:22;;;;;;;14.90;13.70;;;20.40;99.90;;;;;;5059046;28;20449;-78
2023/08/24 03:25:59;;;;;;;13.97;12.80;;;20.30;99.90;;;;;;5057589;28;20524;-77
2023/08/24 03:28:27;;;;;;;14.30;13.20;;;20.30;99.90;;;;;;5057778;28;20472;-77
2023/08/24 03:30:58;;;;;;;13.67;12.60;;;20.10;99.90;;;;;;5057173;28;20543;-77
2023/08/24 03:33:27;;;;;;;12.97;12.07;;;20.10;99.90;;;;;;5062131;28;20488;-80
2023/08/24 03:35:57;;;;;;;14.90;13.60;;;20.10;99.90;;;;;;5063914;28;20469;-76
2023/08/24 03:38:28;;;;;;;13.73;12.50;;;20.10;99.90;;;;;;5064577;28;20461;-78
2023/08/24 03:41:05;;;;;;;14.10;12.80;;;20.20;99.90;;;;;;5065132;28;20449;-79
2023/08/24 03:43:34;;;;;;;13.70;12.50;;;20.10;99.90;;;;;;5068040;28;20455;-77
2023/08/24 03:46:03;;;;;;;14.57;13.27;;;20.10;99.90;;;;;;5064966;28;20544;-78
2023/08/24 03:48:31;;;;;;;13.80;12.70;;;20.20;99.90;;;;;;5068281;28;20619;-76
2023/08/24 03:51:01;;;;;;;13.80;12.60;;;20.20;99.90;;;;;;5070247;28;20536;-79
2023/08/24 03:53:32;;;;;;;15.27;13.90;;;20.20;99.90;;;;;;5073225;28;20437;-78
2023/08/24 03:56:00;;;;;;;14.93;13.60;;;20.20;99.90;;;;;;5071113;28;20560;-78
2023/08/24 03:58:34;;;;;;;14.00;12.70;;;20.20;99.90;;;;;;5072996;28;20476;-79
2023/08/24 04:01:02;;;;;;;13.83;12.63;;;20.20;99.90;;;;;;5070523;28;20444;-77
2023/08/24 04:03:43;;;;;;;13.97;13.00;;;20.20;99.90;;;;;;5065354;28;20491;-77
2023/08/24 04:06:13;;;;;;;14.60;13.33;;;20.20;99.90;;;;;;5066684;28;20470;-78
2023/08/24 04:08:41;;;;;;;14.33;13.20;;;20.20;99.90;;;;;;5068064;28;20437;-78
2023/08/24 04:11:09;;;;;;;14.87;13.37;;;20.20;99.90;;;;;;5067316;28;20464;-79
2023/08/24 04:13:38;;;;;;;14.80;13.57;;;20.10;99.90;;;;;;5069074;28;20442;-75
2023/08/24 04:16:12;;;;;;;14.50;13.30;;;20.10;99.90;;;;;;5069812;28;20976;-76
2023/08/24 04:18:40;;;;;;;15.93;14.43;;;20.10;99.90;;;;;;5073905;28;20442;-78
2023/08/24 04:21:08;;;;;;;15.70;14.43;;;20.20;99.90;;;;;;5073964;28;20517;-78
2023/08/24 04:23:37;;;;;;;14.47;13.30;;;20.10;99.90;;;;;;5074409;28;20464;-77
2023/08/24 04:26:09;;;;;;;15.83;14.37;;;20.10;99.90;;;;;;5073896;28;20462;-76
2023/08/24 04:28:37;;;;;;;16.13;14.60;;;20.10;99.90;;;;;;5072720;28;20448;-77
2023/08/24 04:31:05;;;;;;;15.43;14.03;;;20.10;99.90;;;;;;5074337;28;20437;-77
2023/08/24 04:33:33;;;;;;;16.23;14.93;;;20.20;99.90;;;;;;5075224;28;20427;-77
2023/08/24 04:36:03;;;;;;;18.40;16.43;;;20.10;99.90;;;;;;5072123;28;20488;-77
2023/08/24 04:38:31;;;;;;;17.10;15.60;;;20.10;99.90;;;;;;5073198;28;20446;-75
2023/08/24 04:41:00;;;;;;;17.40;15.90;;;20.10;99.90;;;;;;5074631;28;20480;-76
2023/08/24 04:43:28;;;;;;;18.20;16.60;;;20.10;99.90;;;;;;5076110;28;20541;-78
2023/08/24 04:45:56;;;;;;;16.40;14.10;;;20.20;99.90;;;;;;5067920;28;20492;-77
2023/08/24 04:48:25;;;;;;;15.60;13.90;;;20.20;99.90;;;;;;5062828;28;20450;-77
2023/08/24 04:51:04;;;;;;;17.00;15.07;;;20.10;99.90;;;;;;5063516;28;20532;-79
2023/08/24 04:53:31;;;;;;;15.37;13.77;;;20.10;99.90;;;;;;5059403;28;20457;-77
2023/08/24 04:56:04;;;;;;;16.63;15.13;;;20.00;99.90;;;;;;5059573;28;20523;-76
2023/08/24 04:58:34;;;;;;;14.37;13.17;;;20.00;99.90;;;;;;5064159;28;20450;-78
2023/08/24 05:01:01;;;;;;;15.87;14.40;;;20.00;99.90;;;;;;5059444;28;20456;-79
2023/08/24 05:03:29;;;;;;;16.50;15.13;;;20.10;99.90;;;;;;5060414;28;20533;-79
2023/08/24 05:05:57;;;;;;;15.73;14.33;;;20.00;99.90;;;;;;5063921;28;20462;-77
2023/08/24 05:08:24;;;;;;;15.17;13.87;;;20.10;99.90;;;;;;5061339;28;20457;-77
2023/08/24 05:10:52;;;;;;;15.90;14.30;;;20.10;99.90;;;;;;5059829;28;20465;-78
2023/08/24 05:13:22;;;;;;;15.00;13.60;;;20.10;99.90;;;;;;5062298;28;20460;-79
2023/08/24 05:15:50;;;;;;;14.90;13.60;;;20.10;99.90;;;;;;5063808;28;20481;-76
2023/08/24 05:18:17;;;;;;;15.37;14.00;;;20.20;99.90;;;;;;5057224;28;20926;-78
2023/08/24 05:20:44;;;;;;;16.17;14.67;;;20.20;99.90;;;;;;5055536;28;20449;-78
2023/08/24 05:23:12;;;;;;;15.33;13.93;;;20.30;99.90;;;;;;5053905;28;20517;-77
2023/08/24 05:25:39;;;;;;;13.90;12.70;;;20.30;99.90;;;;;;5055760;28;20434;-79
2023/08/24 05:28:07;;;;;;;14.07;12.80;;;20.30;99.90;;;;;;5054667;28;20922;-76
2023/08/24 05:30:37;;;;;;;13.63;12.33;;;20.00;99.90;;;;;;5056071;28;20442;-77
2023/08/24 05:33:08;;;;;;;15.23;13.83;;;20.40;99.90;;;;;;5054709;28;20456;-79
2023/08/24 05:35:36;;;;;;;14.83;13.40;;;20.50;99.90;;;;;;5054686;28;20461;-77
2023/08/24 05:38:04;;;;;;;13.07;11.87;;;20.50;99.90;;;;;;5054715;28;20458;-78
2023/08/24 05:40:39;;;;;;;13.50;12.27;;;20.50;99.90;;;;;;5055106;28;20934;-79
2023/08/24 05:43:06;;;;;;;15.03;13.57;;;20.50;99.90;;;;;;5053811;28;20503;-78
2023/08/24 05:45:33;;;;;;;13.80;12.50;;;20.30;99.90;;;;;;5053614;28;20815;-77
2023/08/24 05:48:03;;;;;;;14.63;13.43;;;20.60;99.90;;;;;;5053208;28;20473;-79
2023/08/24 05:50:34;;;;;;;13.43;12.13;;;20.60;99.90;;;;;;5056247;28;20449;-78
2023/08/24 05:53:02;;;;;;;13.93;12.73;;;20.70;99.90;;;;;;5053663;28;20426;-78
2023/08/24 05:55:34;;;;;;;13.20;12.10;;;20.70;99.90;;;;;;5054081;28;20496;-78
2023/08/24 05:58:02;;;;;;;13.33;12.13;;;20.80;99.90;;;;;;5053015;28;20481;-77
2023/08/24 06:00:29;;;;;;;13.50;12.20;;;20.80;99.90;;;;;;5056173;28;20484;-78
2023/08/24 06:02:57;;;;;;;13.40;12.30;;;20.80;99.90;;;;;;5052822;28;20473;-79
2023/08/24 06:05:27;;;;;;;14.00;12.73;;;20.90;99.90;;;;;;5056135;28;20449;-79
2023/08/24 06:07:55;;;;;;;14.43;13.23;;;21.00;99.90;;;;;;5056263;28;20477;-78
2023/08/24 06:10:22;;;;;;;12.70;11.33;;;20.90;99.90;;;;;;5057317;28;20442;-77
2023/08/24 06:12:57;;;;;;;13.93;12.73;;;21.00;99.90;;;;;;5062294;28;20456;-77
2023/08/24 06:15:27;;;;;;;13.50;12.50;;;21.00;99.90;;;;;;5062483;28;20480;-77
2023/08/24 06:17:55;;;;;;;12.60;11.37;;;21.00;99.90;;;;;;5057514;28;20528;-76
2023/08/24 06:20:23;;;;;;;12.80;11.63;;;21.10;99.90;;;;;;5057892;28;20484;-77
2023/08/24 06:22:52;;;;;;;12.73;11.53;;;21.20;99.90;;;;;;5058374;28;20429;-77
2023/08/24 06:25:19;;;;;;;11.90;10.60;;;21.20;99.90;;;;;;5061547;28;20461;-77
2023/08/24 06:27:47;;;;;;;12.37;11.17;;;21.20;99.90;;;;;;5060908;28;20461;-78
2023/08/24 06:30:14;;;;;;;12.00;10.80;;;21.30;99.90;;;;;;5062611;28;20457;-77
2023/08/24 06:32:43;;;;;;;11.93;10.90;;;21.40;99.90;;;;;;5057286;28;20485;-78
2023/08/24 06:35:14;;;;;;;11.10;10.20;;;21.50;99.90;;;;;;5054054;28;20482;-78
2023/08/24 06:37:43;;;;;;;11.70;10.70;;;21.60;99.90;;;;;;5054439;28;20474;-79
2023/08/24 06:40:23;;;;;;;11.90;10.77;;;21.70;99.90;;;;;;5057435;28;20532;-77
2023/08/24 06:42:54;;;;;;;10.90;9.97;;;21.70;99.90;;;;;;5056444;28;20515;-77
2023/08/24 06:45:22;;;;;;;12.00;10.90;;;21.80;99.90;;;;;;5054595;28;20449;-78
2023/08/24 06:47:53;;;;;;;12.17;11.10;;;21.80;99.90;;;;;;5056088;28;20488;-77
2023/08/24 06:50:21;;;;;;;12.43;11.33;;;21.80;99.90;;;;;;5055851;28;20491;-77
2023/08/24 06:52:52;;;;;;;16.00;10.50;;;21.80;99.90;;;;;;5056440;28;20478;-75
2023/08/24 06:55:26;;;;;;;12.93;10.13;;;21.80;99.90;;;;;;5057101;28;20491;-78
2023/08/24 06:57:55;;;;;;;11.27;10.30;;;21.80;99.90;;;;;;5056765;28;20475;-79
2023/08/24 07:00:25;;;;;;;11.80;10.70;;;21.90;99.90;;;;;;5054998;28;20454;-77
2023/08/24 07:02:54;;;;;;;20.77;10.53;;;21.90;99.90;;;;;;5055777;28;20441;-79
2023/08/24 07:05:21;;;;;;;11.33;10.30;;;21.90;99.90;;;;;;5059146;28;20449;-81
2023/08/24 07:07:50;;;;;;;10.73;9.90;;;22.30;99.90;;;;;;5060577;28;20465;-78
2023/08/24 07:10:18;;;;;;;12.50;10.90;;;22.10;99.90;;;;;;5060380;28;20480;-80
2023/08/24 07:12:48;;;;;;;11.20;10.40;;;22.10;99.90;;;;;;5061439;28;20540;-78
2023/08/24 07:15:24;;;;;;;12.40;10.70;;;22.20;99.90;;;;;;5063350;28;20512;-80
2023/08/24 07:17:54;;;;;;;12.30;10.50;;;22.30;99.90;;;;;;5063766;28;20571;-77
2023/08/24 07:20:23;;;;;;;15.77;10.50;;;22.50;99.90;;;;;;5067466;28;20498;-79
2023/08/24 07:22:57;;;;;;;10.93;10.00;;;22.60;99.90;;;;;;5067477;28;20510;-80
2023/08/24 07:25:30;;;;;;;10.47;9.57;;;22.70;99.90;;;;;;5066555;28;20449;-80
2023/08/24 07:28:04;;;;;;;11.23;9.90;;;22.70;99.90;;;;;;5060143;28;20456;-76
2023/08/24 07:30:33;;;;;;;10.40;9.50;;;22.70;99.90;;;;;;5060491;28;20476;-78
2023/08/24 07:33:02;;;;;;;10.40;9.60;;;22.70;99.90;;;;;;5061262;28;20857;-76
2023/08/24 07:35:31;;;;;;;11.47;10.27;;;23.10;99.90;;;;;;5062810;28;20476;-77
2023/08/24 07:38:04;;;;;;;11.70;10.70;;;23.20;99.90;;;;;;5062135;28;20453;-79
2023/08/24 07:40:37;;;;;;;11.30;10.40;;;23.20;99.90;;;;;;5067260;28;20430;-79
2023/08/24 07:43:09;;;;;;;11.90;10.83;;;23.20;99.90;;;;;;5064960;28;20455;-78
2023/08/24 07:45:41;;;;;;;12.67;11.23;;;23.20;99.90;;;;;;5065690;28;20430;-77
2023/08/24 07:48:10;;;;;;;12.60;11.50;;;23.30;99.90;;;;;;5063852;28;20434;-79
2023/08/24 07:50:38;;;;;;;11.70;10.50;;;23.50;99.90;;;;;;5061073;28;20520;-80
2023/08/24 07:53:06;;;;;;;11.97;11.10;;;23.60;99.90;;;;;;5061558;28;20477;-78
2023/08/24 07:55:38;;;;;;;11.00;10.00;;;23.80;99.90;;;;;;5063600;28;20479;-78
2023/08/24 07:58:08;;;;;;;10.77;9.40;;;23.90;99.90;;;;;;5063276;28;20446;-78
2023/08/24 08:00:36;;;;;;;9.20;8.40;;;24.00;99.90;;;;;;5062236;28;20461;-80
2023/08/24 08:03:04;;;;;;;8.30;7.50;;;24.00;99.90;;;;;;5061359;28;20430;-79
2023/08/24 08:05:36;;;;;;;8.37;7.67;;;24.20;99.90;;;;;;5061953;28;20460;-82
2023/08/24 08:08:06;;;;;;;7.90;7.27;;;24.30;99.90;;;;;;5062705;28;20434;-78
2023/08/24 08:10:40;;;;;;;7.90;7.30;;;24.50;99.90;;;;;;5062013;28;20448;-78
2023/08/24 08:13:10;;;;;;;7.80;7.20;;;24.60;99.90;;;;;;5062382;28;20454;-78
2023/08/24 08:15:47;;;;;;;8.00;7.30;;;24.70;99.90;;;;;;5063787;28;20540;-78
2023/08/24 08:18:24;;;;;;;8.67;7.50;;;24.50;99.90;;;;;;5065492;28;20532;-76
2023/08/24 08:21:00;;;;;;;8.30;7.60;;;24.70;99.90;;;;;;5060664;28;20449;-78
2023/08/24 08:23:31;;;;;;;7.80;7.10;;;24.90;99.90;;;;;;5059996;28;20480;-77
2023/08/24 08:25:59;;;;;;;8.63;7.93;;;25.00;99.90;;;;;;5058751;28;20547;-77
2023/08/24 08:28:31;;;;;;;11.70;7.23;;;25.20;99.90;;;;;;5055786;28;20507;-78
2023/08/24 08:31:01;;;;;;;7.60;7.07;;;25.30;99.90;;;;;;5057889;28;20453;-78
2023/08/24 08:33:31;;;;;;;8.03;7.27;;;25.40;99.90;;;;;;5064100;28;20470;-76
2023/08/24 08:35:59;;;;;;;9.60;7.17;;;25.50;99.90;;;;;;5061769;28;20561;-78
2023/08/24 08:38:31;;;;;;;8.37;6.97;;;25.60;99.90;;;;;;5061763;28;20457;-78
2023/08/24 08:41:06;;;;;;;13.03;8.10;;;25.90;99.90;;;;;;5061650;28;20457;-80
2023/08/24 08:43:36;;;;;;;7.33;6.70;;;26.00;99.90;;;;;;5060948;28;20931;-75
2023/08/24 08:46:07;;;;;;;7.63;7.07;;;26.20;99.90;;;;;;5061384;28;20493;-77
2023/08/24 08:48:43;;;;;;;7.63;6.97;;;26.30;99.90;;;;;;5062168;28;20950;-76
2023/08/24 08:51:16;;;;;;;11.10;7.00;;;26.60;99.90;;;;;;5062043;28;20456;-77
2023/08/24 08:53:56;;;;;;;6.60;6.20;;;26.90;99.90;;;;;;5063031;28;20457;-81
2023/08/24 08:56:24;;;;;;;7.27;6.43;;;26.90;99.90;;;;;;5063368;28;20481;-78
2023/08/24 08:59:00;;;;;;;7.30;6.57;;;26.30;99.90;;;;;;5060912;28;20469;-78
2023/08/24 09:01:32;;;;;;;7.10;6.53;;;26.80;99.90;;;;;;5061110;28;20459;-78
2023/08/24 09:04:00;;;;;;;7.17;6.30;;;27.20;99.90;;;;;;5058836;28;20493;-78
2023/08/24 09:06:28;;;;;;;7.90;7.20;;;27.40;99.90;;;;;;5059814;28;20449;-80
2023/08/24 09:08:57;;;;;;;7.97;6.33;;;27.10;99.90;;;;;;5057854;28;20449;-78
2023/08/24 09:11:25;;;;;;;7.90;7.30;;;27.30;99.90;;;;;;5056387;28;20464;-79
2023/08/24 09:13:54;;;;;;;7.20;6.47;;;27.60;99.90;;;;;;5056763;28;20438;-76
2023/08/24 09:16:22;;;;;;;7.80;6.87;;;27.50;99.90;;;;;;5056891;28;20535;-81
2023/08/24 09:18:50;;;;;;;8.40;6.80;;;27.40;99.90;;;;;;5057060;28;20565;-78
2023/08/24 09:21:21;;;;;;;7.67;6.53;;;27.50;99.90;;;;;;5058225;28;20449;-81
2023/08/24 09:23:56;;;;;;;7.50;6.83;;;28.20;99.90;;;;;;5058650;28;20672;-81
2023/08/24 09:26:32;;;;;;;8.43;6.70;;;28.40;99.90;;;;;;5058540;28;20473;-80
2023/08/24 09:29:02;;;;;;;8.87;6.57;;;28.70;99.90;;;;;;5059393;28;20468;-81
2023/08/24 09:31:38;;;;;;;7.63;6.93;;;29.10;99.90;;;;;;5059545;28;20441;-76
2023/08/24 09:34:06;;;;;;;15.57;7.00;;;29.20;99.90;;;;;;5059656;28;20532;-77
2023/08/24 09:36:37;;;;;;;7.83;7.03;;;29.40;99.90;;;;;;5060682;28;20479;-78
2023/08/24 09:39:13;;;;;;;6.70;6.20;;;29.60;99.90;;;;;;5059813;28;20484;-80
2023/08/24 09:41:43;;;;;;;8.03;6.83;;;30.00;99.90;;;;;;5059130;28;20433;-77
2023/08/24 09:44:12;;;;;;;6.87;5.87;;;30.20;99.90;;;;;;5057103;28;20430;-77
2023/08/24 09:46:42;;;;;;;7.17;6.60;;;30.20;99.90;;;;;;5053918;28;20470;-77
2023/08/24 09:49:10;;;;;;;8.10;6.53;;;29.90;99.90;;;;;;5049350;28;20443;-76
2023/08/24 09:51:39;;;;;;;8.80;6.43;;;30.40;99.90;;;;;;5052898;28;20437;-78
2023/08/24 09:54:09;;;;;;;7.17;6.57;;;30.40;99.90;;;;;;5043967;28;20996;-78
2023/08/24 09:56:38;;;;;;;8.33;7.50;;;30.20;99.90;;;;;;5056668;28;20481;-78
2023/08/24 09:59:14;;;;;;;6.80;6.20;;;30.30;99.90;;;;;;5056613;28;20453;-79
2023/08/24 10:01:47;;;;;;;6.83;6.23;;;30.60;99.90;;;;;;5057296;28;20450;-76
2023/08/24 10:04:16;;;;;;;8.03;5.97;;;31.00;99.90;;;;;;5057387;28;20468;-75
2023/08/24 10:06:48;;;;;;;8.20;7.30;;;30.80;99.90;;;;;;5057116;28;20504;-77
2023/08/24 10:09:24;;;;;;;7.57;6.80;;;31.30;99.90;;;;;;5056369;28;20445;-77
2023/08/24 10:11:57;;;;;;;6.93;6.43;;;31.50;99.90;;;;;;5056499;28;20441;-79
2023/08/24 10:14:31;;;;;;;7.50;6.73;;;31.70;99.90;;;;;;5056819;28;20453;-77
2023/08/24 10:16:59;;;;;;;7.50;6.40;;;31.80;99.90;;;;;;5057519;28;20529;-77
2023/08/24 10:19:37;;;;;;;9.70;7.27;;;31.90;99.90;;;;;;5058492;28;20485;-78
2023/08/24 10:22:08;;;;;;;7.93;7.33;;;32.20;99.90;;;;;;5058427;28;20453;-78
2023/08/24 10:24:41;;;;;;;6.87;6.17;;;31.90;99.90;;;;;;5058378;28;20963;-78
2023/08/24 10:27:11;;;;;;;6.03;5.53;;;32.00;99.90;;;;;;5057901;28;20639;-77
2023/08/24 10:29:40;;;;;;;6.70;6.10;;;32.60;99.90;;;;;;5057287;28;20457;-80
2023/08/24 10:32:09;;;;;;;8.17;6.03;;;33.10;99.90;;;;;;5055581;28;20430;-76
2023/08/24 10:34:38;;;;;;;7.40;6.80;;;33.00;99.90;;;;;;5055498;28;20426;-78
2023/08/24 10:39:53;;;;;;;6.70;6.20;;;33.10;99.90;;;;;;5055746;28;20456;-78
2023/08/24 10:42:25;;;;;;;6.70;6.30;;;33.70;99.90;;;;;;5058007;28;20441;-79
2023/08/24 10:44:55;;;;;;;7.30;6.70;;;33.80;99.90;;;;;;5065111;28;20430;-78
2023/08/24 10:47:25;;;;;;;9.23;6.73;;;34.10;99.90;;;;;;5068457;28;20541;-76
2023/08/24 10:50:01;;;;;;;7.07;6.47;;;33.50;99.90;;;;;;5071139;28;20441;-79
2023/08/24 10:52:39;;;;;;;6.83;6.40;;;33.70;99.90;;;;;;5069064;28;20448;-77
2023/08/24 10:55:24;;;;;;;7.77;5.87;;;34.10;99.90;;;;;;5066610;28;20455;-76
2023/08/24 10:58:00;;;;;;;6.67;6.27;;;34.30;99.90;;;;;;5066601;28;20500;-78
2023/08/24 11:00:30;;;;;;;6.30;5.90;;;34.20;99.90;;;;;;5065935;28;20457;-78
2023/08/24 11:02:59;;;;;;;7.00;6.40;;;34.30;99.90;;;;;;5063636;28;20522;-79
2023/08/24 11:05:28;;;;;;;7.20;6.60;;;;;;;;;;5064763;28;20445;-77
2023/08/24 11:07:57;;;;;;;6.90;6.07;;;;;;;;;;5063835;28;20477;-77
2023/08/24 11:10:25;;;;;;;9.10;7.23;;;34.70;99.90;;;;;;5065032;28;20631;-78
2023/08/24 11:13:09;;;;;;;7.33;6.83;;;34.40;99.90;;;;;;5063032;28;20514;-77
2023/08/24 11:15:46;;;;;;;7.33;6.67;;;35.00;99.90;;;;;;5063754;28;20433;-77
2023/08/24 11:18:25;;;;;;;7.87;7.27;;;35.20;99.90;;;;;;5062022;28;20473;-76
2023/08/24 11:20:57;;;;;;;8.43;7.43;;;35.50;99.90;;;;;;5058755;28;20801;-77
2023/08/24 11:23:28;;;;;;;6.67;6.27;;;35.70;99.90;;;;;;5058846;28;20430;-77
2023/08/24 11:25:59;;;;;;;7.10;6.57;;;36.20;99.90;;;;;;5056113;28;20508;-76
2023/08/24 11:28:28;;;;;;;7.60;7.00;;;36.00;99.90;;;;;;5056443;28;20453;-79
2023/08/24 11:30:59;;;;;;;8.70;7.90;;;35.90;99.90;;;;;;5055292;28;20434;-79
2023/08/24 11:33:33;;;;;;;7.93;7.30;;;35.30;99.90;;;;;;5053904;28;20540;-77
2023/08/24 11:36:02;;;;;;;7.93;7.03;;;36.00;99.90;;;;;;5054380;28;20476;-79
2023/08/24 11:38:40;;;;;;;7.60;7.00;;;36.30;99.90;;;;;;5056755;28;20446;-77
2023/08/24 11:41:13;;;;;;;7.50;6.90;;;36.60;99.90;;;;;;5053815;28;20933;-80
2023/08/24 11:43:41;;;;;;;6.90;6.30;;;36.80;99.90;;;;;;5055384;28;20441;-82
2023/08/24 11:46:10;;;;;;;7.03;6.53;;;37.10;99.90;;;;;;5055678;28;20508;-81
2023/08/24 11:48:39;;;;;;;7.60;6.90;;;37.20;99.90;;;;;;5056461;28;20477;-79
2023/08/24 11:51:10;;;;;;;8.00;6.60;;;37.30;99.90;;;;;;5056152;28;20464;-78
2023/08/24 11:53:39;;;;;;;6.50;6.10;;;37.40;99.80;;;;;;5057017;28;20871;-79
2023/08/24 11:56:06;;;;;;;7.27;6.70;;;37.60;99.00;;;;;;5059041;28;20473;-81
2023/08/24 11:58:33;;;;;;;7.13;6.50;;;37.50;99.20;;;;;;5059023;28;20449;-78
2023/08/24 12:01:01;;;;;;;7.13;6.30;;;37.60;98.50;;;;;;5058041;28;20449;-80
2023/08/24 12:03:30;;;;;;;7.50;6.93;;;37.30;98.70;;;;;;5057874;28;20445;-79
2023/08/24 12:06:01;;;;;;;8.77;6.90;;;37.40;98.60;;;;;;5059765;28;20486;-81
2023/08/24 12:08:29;;;;;;;6.87;6.30;;;37.60;98.20;;;;;;5059324;28;20449;-81
2023/08/24 12:10:58;;;;;;;7.53;6.73;;;37.60;98.00;;;;;;5059001;28;20500;-78
2023/08/24 12:13:28;;;;;;;7.33;6.30;;;37.40;97.70;;;;;;5058283;28;20922;-80
2023/08/24 12:16:00;;;;;;;8.87;7.07;;;;;;;;;;5058192;28;20501;-78
2023/08/24 12:18:31;;;;;;;11.40;7.10;;;;;;;;;;5063480;28;20499;-79
2023/08/24 12:21:02;;;;;;;7.57;6.87;;;37.90;97.30;;;;;;5064553;28;20539;-79
2023/08/24 12:23:29;;;;;;;7.27;6.70;;;38.10;97.20;;;;;;5064689;28;20448;-79
2023/08/24 12:25:58;;;;;;;6.77;6.20;;;38.10;96.90;;;;;;5061806;28;20484;-78
2023/08/24 12:28:25;;;;;;;7.40;6.70;;;38.20;97.00;;;;;;5056678;28;20433;-80
2023/08/24 12:30:53;;;;;;;7.70;7.00;;;38.50;95.80;;;;;;5056908;28;20795;-80
2023/08/24 12:33:25;;;;;;;7.57;6.80;;;38.70;95.40;;;;;;5065050;28;20560;-79
2023/08/24 12:35:53;;;;;;;8.43;7.50;;;39.00;94.70;;;;;;5060829;28;20433;-79
2023/08/24 12:38:22;;;;;;;6.33;5.83;;;39.00;94.20;;;;;;5058338;28;20531;-77
2023/08/24 12:40:50;;;;;;;7.00;6.40;;;;;;;;;;5058489;28;20452;-80
2023/08/24 12:43:26;;;;;;;8.20;7.10;;;38.80;93.80;;;;;;5059182;28;20831;-79
2023/08/24 12:45:55;;;;;;;7.27;6.57;;;38.70;94.10;;;;;;5060916;28;20835;-79
2023/08/24 12:48:22;;;;;;;7.80;6.47;;;;;;;;;;5065249;28;20441;-80
2023/08/24 12:50:50;;;;;;;7.23;6.40;;;;;;;;;;5062071;28;20441;-77
2023/08/24 12:53:22;;;;;;;6.77;6.17;;;39.10;93.30;;;;;;5060630;28;20468;-78
2023/08/24 12:55:54;;;;;;;6.80;6.30;;;39.00;93.00;;;;;;5058259;28;20496;-78